sensor_id;sensor_type;location;lat;lon;timestamp;pressure;altitude;pressure_sealevel;temperature;humidity
60212;BME280;46079;48.686;15.598;2023-04-01T00:01:58;98423.81;;;19.07;38.91
60212;BME280;46079;48.686;15.598;2023-04-01T00:04:23;98424.63;;;19.07;38.90
60212;BME280;46079;48.686;15.598;2023-04-01T00:06:49;98432.50;;;19.07;39.00
60212;BME280;46079;48.686;15.598;2023-04-01T00:09:14;98431.69;;;19.07;38.90
60212;BME280;46079;48.686;15.598;2023-04-01T00:11:40;98431.69;;;19.07;38.74
60212;BME280;46079;48.686;15.598;2023-04-01T00:14:06;98437.72;;;19.07;38.72
60212;BME280;46079;48.686;15.598;2023-04-01T00:16:32;98432.50;;;19.07;38.73
60212;BME280;46079;48.686;15.598;2023-04-01T00:18:58;98429.06;;;19.07;38.81
60212;BME280;46079;48.686;15.598;2023-04-01T00:21:24;98437.88;;;19.06;38.91
60212;BME280;46079;48.686;15.598;2023-04-01T00:23:50;98441.34;;;19.06;38.70
60212;BME280;46079;48.686;15.598;2023-04-01T00:26:16;98451.84;;;19.06;38.81
60212;BME280;46079;48.686;15.598;2023-04-01T00:28:45;98456.22;;;19.06;38.86
60212;BME280;46079;48.686;15.598;2023-04-01T00:31:11;98445.75;;;19.06;38.88
60212;BME280;46079;48.686;15.598;2023-04-01T00:33:37;98455.41;;;19.05;38.82
60212;BME280;46079;48.686;15.598;2023-04-01T00:36:13;98461.47;;;19.06;38.81
60212;BME280;46079;48.686;15.598;2023-04-01T00:38:39;98462.47;;;19.05;38.94
60212;BME280;46079;48.686;15.598;2023-04-01T00:41:07;98472.78;;;19.06;38.89
60212;BME280;46079;48.686;15.598;2023-04-01T00:43:33;98460.66;;;19.05;38.95
60212;BME280;46079;48.686;15.598;2023-04-01T00:45:59;98464.28;;;19.04;39.00
60212;BME280;46079;48.686;15.598;2023-04-01T00:48:34;98461.66;;;19.04;38.87
60212;BME280;46079;48.686;15.598;2023-04-01T00:51:07;98462.66;;;19.03;38.72
60212;BME280;46079;48.686;15.598;2023-04-01T00:53:36;98464.28;;;19.04;38.91
60212;BME280;46079;48.686;15.598;2023-04-01T00:56:09;98459.03;;;19.04;38.87
60212;BME280;46079;48.686;15.598;2023-04-01T00:58:38;98459.03;;;19.04;38.72
60212;BME280;46079;48.686;15.598;2023-04-01T01:01:05;98459.84;;;19.05;38.72
60212;BME280;46079;48.686;15.598;2023-04-01T01:03:31;98453.78;;;19.04;38.93
60212;BME280;46079;48.686;15.598;2023-04-01T01:11:09;98450.34;;;19.04;38.65
60212;BME280;46079;48.686;15.598;2023-04-01T01:13:50;98462.66;;;19.03;38.80
60212;BME280;46079;48.686;15.598;2023-04-01T01:16:27;98462.66;;;19.03;38.83
60212;BME280;46079;48.686;15.598;2023-04-01T01:24:42;98459.03;;;19.04;38.89
60212;BME280;46079;48.686;15.598;2023-04-01T01:27:17;98457.41;;;19.03;39.04
60212;BME280;46079;48.686;15.598;2023-04-01T01:35:33;98445.28;;;19.02;38.96
60212;BME280;46079;48.686;15.598;2023-04-01T01:38:13;98440.84;;;19.03;38.84
60212;BME280;46079;48.686;15.598;2023-04-01T01:40:42;98436.44;;;19.03;38.75
60212;BME280;46079;48.686;15.598;2023-04-01T01:43:12;98431.19;;;19.03;38.67
60212;BME280;46079;48.686;15.598;2023-04-01T01:45:43;98426.13;;;19.02;38.83
60212;BME280;46079;48.686;15.598;2023-04-01T01:48:11;98426.94;;;19.02;38.91
60212;BME280;46079;48.686;15.598;2023-04-01T01:50:39;98430.53;;;19.01;38.73
60212;BME280;46079;48.686;15.598;2023-04-01T01:53:09;98428.72;;;19.02;38.91
60212;BME280;46079;48.686;15.598;2023-04-01T01:55:37;98435.78;;;19.01;38.79
60212;BME280;46079;48.686;15.598;2023-04-01T01:58:10;98430.53;;;19.01;38.71
60212;BME280;46079;48.686;15.598;2023-04-01T02:00:37;98433.16;;;19.01;38.82
60212;BME280;46079;48.686;15.598;2023-04-01T02:03:04;98426.94;;;19.02;38.72
60212;BME280;46079;48.686;15.598;2023-04-01T02:05:30;98432.34;;;19.01;38.40
60212;BME280;46079;48.686;15.598;2023-04-01T02:08:26;98438.41;;;19.01;38.83
60212;BME280;46079;48.686;15.598;2023-04-01T02:11:07;98430.53;;;19.01;38.77
60212;BME280;46079;48.686;15.598;2023-04-01T02:13:38;98430.53;;;19.01;38.74
60212;BME280;46079;48.686;15.598;2023-04-01T02:16:11;98430.53;;;19.01;38.73
60212;BME280;46079;48.686;15.598;2023-04-01T02:18:39;98427.09;;;19.01;38.81
60212;BME280;46079;48.686;15.598;2023-04-01T02:21:08;98431.50;;;19.00;38.67
60212;BME280;46079;48.686;15.598;2023-04-01T02:23:35;98428.06;;;19.00;38.74
60212;BME280;46079;48.686;15.598;2023-04-01T02:26:07;98428.06;;;19.00;38.71
60212;BME280;46079;48.686;15.598;2023-04-01T02:28:36;98426.25;;;19.00;38.68
60212;BME280;46079;48.686;15.598;2023-04-01T02:31:03;98425.44;;;19.00;38.62
60212;BME280;46079;48.686;15.598;2023-04-01T02:33:30;98418.41;;;19.00;38.77
60212;BME280;46079;48.686;15.598;2023-04-01T02:35:57;98423.66;;;19.00;38.54
60212;BME280;46079;48.686;15.598;2023-04-01T02:38:23;98427.25;;;18.99;38.69
60212;BME280;46079;48.686;15.598;2023-04-01T02:40:51;98418.41;;;19.00;38.69
60212;BME280;46079;48.686;15.598;2023-04-01T02:43:17;98423.66;;;19.00;38.70
60212;BME280;46079;48.686;15.598;2023-04-01T02:45:44;98419.41;;;18.99;38.74
60212;BME280;46079;48.686;15.598;2023-04-01T02:48:09;98411.53;;;18.99;38.72
60212;BME280;46079;48.686;15.598;2023-04-01T02:50:35;98417.59;;;19.00;38.61
60212;BME280;46079;48.686;15.598;2023-04-01T02:53:01;98414.97;;;19.00;38.81
60212;BME280;46079;48.686;15.598;2023-04-01T02:55:29;98416.78;;;18.99;38.46
60212;BME280;46079;48.686;15.598;2023-04-01T02:57:55;98419.41;;;18.99;38.64
60212;BME280;46079;48.686;15.598;2023-04-01T03:00:21;98412.53;;;18.98;38.61
60212;BME280;46079;48.686;15.598;2023-04-01T03:02:46;98421.22;;;18.99;38.60
60212;BME280;46079;48.686;15.598;2023-04-01T03:05:12;98415.97;;;18.99;38.75
60212;BME280;46079;48.686;15.598;2023-04-01T03:07:38;98412.53;;;18.98;38.67
60212;BME280;46079;48.686;15.598;2023-04-01T03:10:04;98432.50;;;18.99;38.74
60212;BME280;46079;48.686;15.598;2023-04-01T03:12:30;98428.25;;;18.98;38.57
60212;BME280;46079;48.686;15.598;2023-04-01T03:14:56;98420.38;;;18.98;38.84
60212;BME280;46079;48.686;15.598;2023-04-01T03:17:21;98432.69;;;18.98;38.51
60212;BME280;46079;48.686;15.598;2023-04-01T03:19:46;98431.84;;;18.97;38.64
60212;BME280;46079;48.686;15.598;2023-04-01T03:22:12;98437.91;;;18.98;38.76
60212;BME280;46079;48.686;15.598;2023-04-01T03:24:37;98430.06;;;18.98;38.65
60212;BME280;46079;48.686;15.598;2023-04-01T03:27:03;98426.59;;;18.97;38.83
60212;BME280;46079;48.686;15.598;2023-04-01T03:29:29;98426.59;;;18.97;38.63
60212;BME280;46079;48.686;15.598;2023-04-01T03:31:54;98443.16;;;18.98;38.75
60212;BME280;46079;48.686;15.598;2023-04-01T03:34:23;98438.88;;;18.97;38.66
60212;BME280;46079;48.686;15.598;2023-04-01T03:36:48;98433.50;;;18.98;38.57
60212;BME280;46079;48.686;15.598;2023-04-01T03:39:14;98425.78;;;18.97;38.59
60212;BME280;46079;48.686;15.598;2023-04-01T03:41:44;98427.44;;;18.98;38.67
60212;BME280;46079;48.686;15.598;2023-04-01T03:44:10;98436.25;;;18.97;38.54
60212;BME280;46079;48.686;15.598;2023-04-01T03:46:35;98428.41;;;18.97;38.54
60212;BME280;46079;48.686;15.598;2023-04-01T03:49:01;98431.84;;;18.97;38.55
60212;BME280;46079;48.686;15.598;2023-04-01T03:51:26;98436.25;;;18.97;38.45
60212;BME280;46079;48.686;15.598;2023-04-01T03:53:52;98442.31;;;18.97;38.82
60212;BME280;46079;48.686;15.598;2023-04-01T03:56:17;98446.75;;;18.97;38.47
60212;BME280;46079;48.686;15.598;2023-04-01T03:58:43;98445.94;;;18.96;38.44
60212;BME280;46079;48.686;15.598;2023-04-01T04:01:20;98449.38;;;18.97;38.57
60212;BME280;46079;48.686;15.598;2023-04-01T04:03:46;98444.94;;;18.97;38.64
60212;BME280;46079;48.686;15.598;2023-04-01T04:06:16;98449.53;;;18.95;38.56
60212;BME280;46079;48.686;15.598;2023-04-01T04:08:43;98438.88;;;18.97;38.88
60212;BME280;46079;48.686;15.598;2023-04-01T04:11:09;98437.25;;;18.96;38.65
60212;BME280;46079;48.686;15.598;2023-04-01T04:13:35;98430.22;;;18.96;38.47
60212;BME280;46079;48.686;15.598;2023-04-01T04:16:02;98430.22;;;18.96;38.59
60212;BME280;46079;48.686;15.598;2023-04-01T04:18:28;98434.63;;;18.96;38.56
60212;BME280;46079;48.686;15.598;2023-04-01T04:20:53;98433.81;;;18.95;38.73
60212;BME280;46079;48.686;15.598;2023-04-01T04:23:19;98424.16;;;18.96;38.77
60212;BME280;46079;48.686;15.598;2023-04-01T04:25:55;98439.06;;;18.95;38.55
60212;BME280;46079;48.686;15.598;2023-04-01T04:28:21;98431.34;;;18.94;38.65
60212;BME280;46079;48.686;15.598;2023-04-01T04:30:47;98439.06;;;18.95;38.55
60212;BME280;46079;48.686;15.598;2023-04-01T04:33:13;98439.06;;;18.95;38.73
60212;BME280;46079;48.686;15.598;2023-04-01T04:35:38;98442.50;;;18.96;38.46
60212;BME280;46079;48.686;15.598;2023-04-01T04:38:03;98437.41;;;18.94;38.44
60212;BME280;46079;48.686;15.598;2023-04-01T04:40:29;98439.06;;;18.95;38.73
60212;BME280;46079;48.686;15.598;2023-04-01T04:42:54;98440.03;;;18.94;38.74
60212;BME280;46079;48.686;15.598;2023-04-01T04:45:20;98440.03;;;18.94;38.62
60212;BME280;46079;48.686;15.598;2023-04-01T04:47:45;98449.53;;;18.95;38.36
60212;BME280;46079;48.686;15.598;2023-04-01T04:50:11;98444.31;;;18.95;38.53
60212;BME280;46079;48.686;15.598;2023-04-01T04:52:37;98441.84;;;18.94;38.58
60212;BME280;46079;48.686;15.598;2023-04-01T04:55:02;98435.59;;;18.95;38.72
60212;BME280;46079;48.686;15.598;2023-04-01T04:57:28;98439.22;;;18.94;38.87
60212;BME280;46079;48.686;15.598;2023-04-01T04:59:53;98440.84;;;18.95;38.60
60212;BME280;46079;48.686;15.598;2023-04-01T05:02:18;98431.34;;;18.94;38.69
60212;BME280;46079;48.686;15.598;2023-04-01T05:04:44;98438.22;;;18.95;38.60
60212;BME280;46079;48.686;15.598;2023-04-01T05:07:10;98435.59;;;18.95;38.60
60212;BME280;46079;48.686;15.598;2023-04-01T05:09:35;98437.41;;;18.94;38.63
60212;BME280;46079;48.686;15.598;2023-04-01T05:12:01;98443.47;;;18.95;38.52
60212;BME280;46079;48.686;15.598;2023-04-01T05:14:26;98453.94;;;18.95;38.69
60212;BME280;46079;48.686;15.598;2023-04-01T05:16:52;98453.13;;;18.94;38.52
60212;BME280;46079;48.686;15.598;2023-04-01T05:19:17;98447.06;;;18.94;38.47
60212;BME280;46079;48.686;15.598;2023-04-01T05:21:43;98440.03;;;18.94;38.43
60212;BME280;46079;48.686;15.598;2023-04-01T05:24:08;98446.25;;;18.93;38.56
60212;BME280;46079;48.686;15.598;2023-04-01T05:26:34;98435.78;;;18.93;38.50
60212;BME280;46079;48.686;15.598;2023-04-01T05:29:00;98439.06;;;18.95;38.50
60212;BME280;46079;48.686;15.598;2023-04-01T05:31:25;98451.31;;;18.95;38.08
60212;BME280;46079;48.686;15.598;2023-04-01T05:33:51;98455.75;;;18.94;38.60
60212;BME280;46079;48.686;15.598;2023-04-01T05:36:16;98453.13;;;18.94;38.50
60212;BME280;46079;48.686;15.598;2023-04-01T05:38:42;98474.91;;;18.95;38.69
60212;BME280;46079;48.686;15.598;2023-04-01T05:41:11;98473.13;;;18.95;38.77
60212;BME280;46079;48.686;15.598;2023-04-01T05:43:37;98480.16;;;18.95;38.50
60212;BME280;46079;48.686;15.598;2023-04-01T05:46:03;98474.09;;;18.94;38.76
60212;BME280;46079;48.686;15.598;2023-04-01T05:48:28;98479.34;;;18.94;38.78
60212;BME280;46079;48.686;15.598;2023-04-01T05:50:54;98481.00;;;18.95;38.87
60212;BME280;46079;48.686;15.598;2023-04-01T05:53:19;98474.91;;;18.95;38.73
60212;BME280;46079;48.686;15.598;2023-04-01T05:55:45;98479.00;;;18.97;38.37
60212;BME280;46079;48.686;15.598;2023-04-01T05:58:10;98478.66;;;19.00;38.58
60212;BME280;46079;48.686;15.598;2023-04-01T06:00:36;98489.66;;;19.04;38.58
60212;BME280;46079;48.686;15.598;2023-04-01T06:03:01;98491.78;;;19.08;38.57
60212;BME280;46079;48.686;15.598;2023-04-01T06:05:29;98488.19;;;19.09;38.37
60212;BME280;46079;48.686;15.598;2023-04-01T06:07:58;98497.53;;;19.12;38.60
60212;BME280;46079;48.686;15.598;2023-04-01T06:13:12;98493.44;;;19.18;38.30
60212;BME280;46079;48.686;15.598;2023-04-01T06:16:18;98493.91;;;19.21;38.45
60212;BME280;46079;48.686;15.598;2023-04-01T06:29:53;98494.22;;;19.43;37.97
60212;BME280;46079;48.686;15.598;2023-04-01T06:38:21;98497.31;;;19.46;37.97
60212;BME280;46079;48.686;15.598;2023-04-01T06:43:38;98496.38;;;19.47;37.78
60212;BME280;46079;48.686;15.598;2023-04-01T06:51:38;98499.47;;;19.51;37.88
60212;BME280;46079;48.686;15.598;2023-04-01T06:54:16;98508.97;;;19.52;37.85
60212;BME280;46079;48.686;15.598;2023-04-01T06:56:45;98501.91;;;19.52;37.87
60212;BME280;46079;48.686;15.598;2023-04-01T06:59:19;98509.75;;;19.52;37.95
60212;BME280;46079;48.686;15.598;2023-04-01T07:01:50;98515.84;;;19.53;37.76
60212;BME280;46079;48.686;15.598;2023-04-01T07:04:23;98509.63;;;19.54;37.95
60212;BME280;46079;48.686;15.598;2023-04-01T07:07:00;98509.63;;;19.54;37.71
60212;BME280;46079;48.686;15.598;2023-04-01T07:09:38;98518.28;;;19.54;37.99
60212;BME280;46079;48.686;15.598;2023-04-01T07:12:18;98527.16;;;19.53;37.84
60212;BME280;46079;48.686;15.598;2023-04-01T07:14:48;98523.88;;;19.51;37.83
60212;BME280;46079;48.686;15.598;2023-04-01T07:17:17;98530.13;;;19.50;37.75
60212;BME280;46079;48.686;15.598;2023-04-01T07:22:38;98528.66;;;19.48;38.11
60212;BME280;46079;48.686;15.598;2023-04-01T07:25:13;98522.59;;;19.47;37.90
60212;BME280;46079;48.686;15.598;2023-04-01T07:27:42;98527.00;;;19.47;38.02
60212;BME280;46079;48.686;15.598;2023-04-01T07:30:20;98522.59;;;19.47;38.09
60212;BME280;46079;48.686;15.598;2023-04-01T07:33:32;98518.16;;;19.48;37.79
60212;BME280;46079;48.686;15.598;2023-04-01T07:36:20;98520.59;;;19.49;37.79
60212;BME280;46079;48.686;15.598;2023-04-01T07:39:08;98517.81;;;19.51;37.94
60212;BME280;46079;48.686;15.598;2023-04-01T07:44:20;98514.72;;;19.55;37.87
60212;BME280;46079;48.686;15.598;2023-04-01T07:49:59;98529.13;;;19.60;37.93
60212;BME280;46079;48.686;15.598;2023-04-01T07:52:35;98526.34;;;19.61;37.89
60212;BME280;46079;48.686;15.598;2023-04-01T08:00:33;98532.88;;;19.65;37.78
60212;BME280;46079;48.686;15.598;2023-04-01T08:08:57;98534.38;;;19.68;37.59
60212;BME280;46079;48.686;15.598;2023-04-01T08:11:58;98533.56;;;19.67;37.66
60212;BME280;46079;48.686;15.598;2023-04-01T08:17:56;98529.94;;;19.68;37.53
60212;BME280;46079;48.686;15.598;2023-04-01T08:20:34;98523.88;;;19.68;37.87
60212;BME280;46079;48.686;15.598;2023-04-01T08:23:06;98528.13;;;19.69;37.56
60212;BME280;46079;48.686;15.598;2023-04-01T08:25:39;98528.13;;;19.69;37.66
60212;BME280;46079;48.686;15.598;2023-04-01T08:28:26;98536.19;;;19.67;37.52
60212;BME280;46079;48.686;15.598;2023-04-01T08:31:33;98534.53;;;19.66;37.74
60212;BME280;46079;48.686;15.598;2023-04-01T08:34:04;98528.63;;;19.64;37.62
60212;BME280;46079;48.686;15.598;2023-04-01T08:36:38;98539.28;;;19.63;37.70
60212;BME280;46079;48.686;15.598;2023-04-01T08:39:35;98531.59;;;19.61;37.84
60212;BME280;46079;48.686;15.598;2023-04-01T08:44:40;98541.56;;;19.58;37.78
60212;BME280;46079;48.686;15.598;2023-04-01T08:56:20;98549.28;;;19.51;37.96
60212;BME280;46079;48.686;15.598;2023-04-01T09:13:05;98555.03;;;19.46;38.29
60212;BME280;46079;48.686;15.598;2023-04-01T09:16:12;98556.00;;;19.45;38.06
60212;BME280;46079;48.686;15.598;2023-04-01T09:24:18;98567.66;;;19.43;38.49
60212;BME280;46079;48.686;15.598;2023-04-01T09:27:04;98561.75;;;19.41;38.37
60212;BME280;46079;48.686;15.598;2023-04-01T09:35:20;98560.25;;;19.38;38.48
60212;BME280;46079;48.686;15.598;2023-04-01T09:40:26;98563.88;;;19.37;38.45
60212;BME280;46079;48.686;15.598;2023-04-01T09:45:48;98556.97;;;19.36;38.43
60212;BME280;46079;48.686;15.598;2023-04-01T09:53:47;98561.59;;;19.34;38.47
60212;BME280;46079;48.686;15.598;2023-04-01T09:56:33;98569.47;;;19.34;38.37
60212;BME280;46079;48.686;15.598;2023-04-01T10:29:08;98544.53;;;19.30;38.79
60212;BME280;46079;48.686;15.598;2023-04-01T10:40:24;98537.66;;;19.29;38.69
60212;BME280;46079;48.686;15.598;2023-04-01T10:46:12;98550.78;;;19.29;38.82
60212;BME280;46079;48.686;15.598;2023-04-01T10:51:38;98553.41;;;19.29;38.56
60212;BME280;46079;48.686;15.598;2023-04-01T10:56:59;98552.72;;;19.27;38.62
60212;BME280;46079;48.686;15.598;2023-04-01T10:59:44;98558.78;;;19.27;38.69
60212;BME280;46079;48.686;15.598;2023-04-01T11:10:35;98562.41;;;19.26;38.72
60212;BME280;46079;48.686;15.598;2023-04-01T11:22:17;98557.97;;;19.27;38.58
60212;BME280;46079;48.686;15.598;2023-04-01T11:31:16;98543.91;;;19.28;38.60
60212;BME280;46079;48.686;15.598;2023-04-01T11:33:54;98550.09;;;19.27;38.75
60212;BME280;46079;48.686;15.598;2023-04-01T11:44:45;98554.38;;;19.28;38.63
60212;BME280;46079;48.686;15.598;2023-04-01T11:47:40;98548.97;;;19.29;38.96
60212;BME280;46079;48.686;15.598;2023-04-01T11:50:11;98551.59;;;19.29;38.58
60212;BME280;46079;48.686;15.598;2023-04-01T11:55:31;98551.59;;;19.29;38.48
60212;BME280;46079;48.686;15.598;2023-04-01T12:06:19;98545.34;;;19.30;38.85
60212;BME280;46079;48.686;15.598;2023-04-01T12:09:04;98549.63;;;19.31;38.88
60212;BME280;46079;48.686;15.598;2023-04-01T12:11:48;98551.25;;;19.32;38.50
60212;BME280;46079;48.686;15.598;2023-04-01T12:14:24;98542.56;;;19.32;38.75
60212;BME280;46079;48.686;15.598;2023-04-01T12:24:46;98553.72;;;19.34;38.54
60212;BME280;46079;48.686;15.598;2023-04-01T12:30:06;98550.09;;;19.35;38.56
60212;BME280;46079;48.686;15.598;2023-04-01T12:32:43;98552.59;;;19.37;38.83
60212;BME280;46079;48.686;15.598;2023-04-01T12:35:24;98554.22;;;19.38;38.72
60212;BME280;46079;48.686;15.598;2023-04-01T12:38:04;98535.03;;;19.37;38.61
60212;BME280;46079;48.686;15.598;2023-04-01T12:43:53;98529.63;;;19.39;38.81
60212;BME280;46079;48.686;15.598;2023-04-01T12:46:46;98526.84;;;19.40;38.74
60212;BME280;46079;48.686;15.598;2023-04-01T13:08:59;98556.97;;;19.44;38.81
60212;BME280;46079;48.686;15.598;2023-04-01T13:11:45;98548.28;;;19.44;38.76
60212;BME280;46079;48.686;15.598;2023-04-01T13:22:20;98533.88;;;19.48;39.09
60212;BME280;46079;48.686;15.598;2023-04-01T13:27:49;98520.59;;;19.49;38.78
60212;BME280;46079;48.686;15.598;2023-04-01T13:43:19;98527.97;;;19.54;39.10
60212;BME280;46079;48.686;15.598;2023-04-01T13:59:46;98505.03;;;19.56;38.90
60212;BME280;46079;48.686;15.598;2023-04-01T14:02:25;98512.56;;;19.59;39.16
60212;BME280;46079;48.686;15.598;2023-04-01T14:13:48;98500.91;;;19.62;39.08
60212;BME280;46079;48.686;15.598;2023-04-01T14:30:38;98485.53;;;19.67;39.07
60212;BME280;46079;48.686;15.598;2023-04-01T14:33:46;98488.78;;;19.69;39.02
60212;BME280;46079;48.686;15.598;2023-04-01T14:42:38;98490.25;;;19.71;38.93
60212;BME280;46079;48.686;15.598;2023-04-01T14:45:44;98498.78;;;19.73;38.92
60212;BME280;46079;48.686;15.598;2023-04-01T14:48:30;98501.41;;;19.73;39.02
60212;BME280;46079;48.686;15.598;2023-04-01T14:51:04;98490.75;;;19.75;39.11
60212;BME280;46079;48.686;15.598;2023-04-01T14:53:38;98499.44;;;19.75;39.14
60212;BME280;46079;48.686;15.598;2023-04-01T14:56:04;98481.06;;;19.75;39.04
60212;BME280;46079;48.686;15.598;2023-04-01T14:58:45;98484.34;;;19.77;38.99
60212;BME280;46079;48.686;15.598;2023-04-01T15:01:45;98475.50;;;19.79;39.10
60212;BME280;46079;48.686;15.598;2023-04-01T15:04:43;98485.19;;;19.78;39.05
60212;BME280;46079;48.686;15.598;2023-04-01T15:13:19;98476.97;;;19.81;39.17
60212;BME280;46079;48.686;15.598;2023-04-01T15:21:22;98494.34;;;19.82;39.13
60212;BME280;46079;48.686;15.598;2023-04-01T15:24:20;98486.31;;;19.84;39.16
60212;BME280;46079;48.686;15.598;2023-04-01T15:29:46;98489.75;;;19.84;39.06
60212;BME280;46079;48.686;15.598;2023-04-01T15:38:19;98497.28;;;19.87;39.04
60212;BME280;46079;48.686;15.598;2023-04-01T15:41:00;98491.06;;;19.88;39.27
60212;BME280;46079;48.686;15.598;2023-04-01T15:49:09;98502.19;;;19.90;39.07
60212;BME280;46079;48.686;15.598;2023-04-01T15:52:00;98495.31;;;19.89;39.28
60212;BME280;46079;48.686;15.598;2023-04-01T15:54:49;98504.66;;;19.92;39.10
60212;BME280;46079;48.686;15.598;2023-04-01T16:00:23;98510.72;;;19.92;39.09
60212;BME280;46079;48.686;15.598;2023-04-01T16:14:18;98523.34;;;19.97;39.29
60212;BME280;46079;48.686;15.598;2023-04-01T16:20:01;98528.59;;;19.97;39.20
60212;BME280;46079;48.686;15.598;2023-04-01T16:23:04;98532.19;;;19.96;39.27
60212;BME280;46079;48.686;15.598;2023-04-01T16:28:28;98534.63;;;19.97;39.10
60212;BME280;46079;48.686;15.598;2023-04-01T16:31:16;98545.97;;;19.98;39.16
60212;BME280;46079;48.686;15.598;2023-04-01T16:34:19;98545.97;;;19.98;39.28
60212;BME280;46079;48.686;15.598;2023-04-01T16:36:45;98549.41;;;19.98;39.14
60212;BME280;46079;48.686;15.598;2023-04-01T16:44:28;98571.03;;;20.01;39.14
60212;BME280;46079;48.686;15.598;2023-04-01T16:47:12;98579.72;;;20.01;39.18
60212;BME280;46079;48.686;15.598;2023-04-01T16:49:46;98578.91;;;20.01;39.15
60212;BME280;46079;48.686;15.598;2023-04-01T16:52:30;98584.16;;;20.01;39.34
60212;BME280;46079;48.686;15.598;2023-04-01T16:58:10;98585.16;;;19.99;39.35
60212;BME280;46079;48.686;15.598;2023-04-01T17:00:50;98586.78;;;20.01;39.39
60212;BME280;46079;48.686;15.598;2023-04-01T17:03:32;98604.16;;;20.02;39.24
60212;BME280;46079;48.686;15.598;2023-04-01T17:08:51;98597.28;;;20.01;39.24
60212;BME280;46079;48.686;15.598;2023-04-01T17:11:27;98614.66;;;20.02;39.26
60212;BME280;46079;48.686;15.598;2023-04-01T17:16:28;98619.91;;;20.02;39.42
60212;BME280;46079;48.686;15.598;2023-04-01T17:27:51;98630.41;;;20.02;39.35
60212;BME280;46079;48.686;15.598;2023-04-01T17:36:19;98654.88;;;20.02;39.52
60212;BME280;46079;48.686;15.598;2023-04-01T17:42:14;98652.25;;;20.02;39.25
60212;BME280;46079;48.686;15.598;2023-04-01T17:47:49;98664.38;;;20.03;39.24
60212;BME280;46079;48.686;15.598;2023-04-01T17:50:35;98672.41;;;20.02;39.18
60212;BME280;46079;48.686;15.598;2023-04-01T17:56:11;98679.31;;;20.03;39.39
60212;BME280;46079;48.686;15.598;2023-04-01T18:07:03;98701.94;;;20.04;39.41
60212;BME280;46079;48.686;15.598;2023-04-01T18:17:39;98700.13;;;20.04;39.45
60212;BME280;46079;48.686;15.598;2023-04-01T18:22:58;98714.91;;;20.05;39.56
60212;BME280;46079;48.686;15.598;2023-04-01T18:25:33;98718.50;;;20.04;39.39
60212;BME280;46079;48.686;15.598;2023-04-01T18:28:19;98716.69;;;20.05;39.34
60212;BME280;46079;48.686;15.598;2023-04-01T18:30:54;98727.19;;;20.05;39.36
60212;BME280;46079;48.686;15.598;2023-04-01T18:33:26;98733.31;;;20.05;39.52
60212;BME280;46079;48.686;15.598;2023-04-01T18:36:18;98739.38;;;20.06;39.36
60212;BME280;46079;48.686;15.598;2023-04-01T18:38:55;98748.06;;;20.06;39.45
60212;BME280;46079;48.686;15.598;2023-04-01T18:41:42;98751.50;;;20.07;39.59
60212;BME280;46079;48.686;15.598;2023-04-01T18:47:07;98759.56;;;20.05;39.46
60212;BME280;46079;48.686;15.598;2023-04-01T18:49:55;98768.25;;;20.06;39.52
60212;BME280;46079;48.686;15.598;2023-04-01T18:52:40;98763.81;;;20.06;39.64
60212;BME280;46079;48.686;15.598;2023-04-01T18:55:29;98757.75;;;20.06;39.50
60212;BME280;46079;48.686;15.598;2023-04-01T19:00:39;98765.63;;;20.06;39.44
60212;BME280;46079;48.686;15.598;2023-04-01T19:06:01;98779.56;;;20.06;39.73
60212;BME280;46079;48.686;15.598;2023-04-01T19:08:30;98784.00;;;20.06;39.72
60212;BME280;46079;48.686;15.598;2023-04-01T19:11:23;98792.69;;;20.06;39.58
60212;BME280;46079;48.686;15.598;2023-04-01T19:14:30;98802.19;;;20.07;39.66
60212;BME280;46079;48.686;15.598;2023-04-01T19:25:15;98806.63;;;20.07;39.65
60212;BME280;46079;48.686;15.598;2023-04-01T19:28:00;98806.63;;;20.07;39.60
60212;BME280;46079;48.686;15.598;2023-04-01T19:30:54;98806.63;;;20.07;39.51
60212;BME280;46079;48.686;15.598;2023-04-01T19:41:46;98822.38;;;20.07;39.76
60212;BME280;46079;48.686;15.598;2023-04-01T19:46:58;98832.88;;;20.07;39.58
60212;BME280;46079;48.686;15.598;2023-04-01T19:49:40;98835.50;;;20.07;39.62
60212;BME280;46079;48.686;15.598;2023-04-01T19:52:16;98838.13;;;20.07;39.57
60212;BME280;46079;48.686;15.598;2023-04-01T19:57:34;98839.78;;;20.08;39.56
60212;BME280;46079;48.686;15.598;2023-04-01T20:05:47;98841.41;;;20.09;39.57
60212;BME280;46079;48.686;15.598;2023-04-01T20:08:35;98851.91;;;20.09;39.44
60212;BME280;46079;48.686;15.598;2023-04-01T20:13:51;98840.59;;;20.08;39.70
60212;BME280;46079;48.686;15.598;2023-04-01T20:16:21;98843.22;;;20.08;39.72
60212;BME280;46079;48.686;15.598;2023-04-01T20:18:55;98835.34;;;20.08;39.62
60212;BME280;46079;48.686;15.598;2023-04-01T20:21:41;98836.16;;;20.09;39.50
60212;BME280;46079;48.686;15.598;2023-04-01T20:26:41;98840.59;;;20.08;39.66
60212;BME280;46079;48.686;15.598;2023-04-01T20:37:38;98840.59;;;20.08;39.42
60212;BME280;46079;48.686;15.598;2023-04-01T20:43:20;98833.53;;;20.09;39.55
60212;BME280;46079;48.686;15.598;2023-04-01T20:51:22;98849.28;;;20.09;39.49
60212;BME280;46079;48.686;15.598;2023-04-01T20:57:04;98846.66;;;20.09;39.44
60212;BME280;46079;48.686;15.598;2023-04-01T21:07:45;98853.72;;;20.08;39.59
60212;BME280;46079;48.686;15.598;2023-04-01T21:16:08;98865.03;;;20.09;39.41
60212;BME280;46079;48.686;15.598;2023-04-01T21:18:50;98854.53;;;20.09;39.63
60212;BME280;46079;48.686;15.598;2023-04-01T21:29:58;98872.78;;;20.10;39.94
60212;BME280;46079;48.686;15.598;2023-04-01T21:37:56;98872.59;;;20.12;39.87
60212;BME280;46079;48.686;15.598;2023-04-01T21:40:50;98877.84;;;20.12;39.96
60212;BME280;46079;48.686;15.598;2023-04-01T21:48:47;98877.84;;;20.12;40.24